createdAt,value
2023-11-25T00:00:51.283Z,1.67
2023-11-25T00:01:54.316Z,1.65
2023-11-25T00:02:58.061Z,1.65
2023-11-25T00:04:01.178Z,1.61
2023-11-25T00:05:06.582Z,1.62
2023-11-25T00:06:09.766Z,1.59
2023-11-25T00:07:13.009Z,1.57
2023-11-25T00:08:16.669Z,1.56
2023-11-25T00:09:19.671Z,1.52
2023-11-25T00:10:24.113Z,1.55
2023-11-25T00:11:29.939Z,1.57
2023-11-25T00:12:33.446Z,1.55
2023-11-25T00:13:36.501Z,1.57
2023-11-25T00:14:40.584Z,1.54
2023-11-25T00:15:43.812Z,1.56
2023-11-25T00:16:46.875Z,1.51
2023-11-25T00:17:49.718Z,1.43
2023-11-25T00:18:52.960Z,1.42
2023-11-25T00:19:57.632Z,1.43
2023-11-25T00:21:00.703Z,1.42
2023-11-25T00:22:03.697Z,1.43
2023-11-25T00:23:06.636Z,1.44
2023-11-25T00:24:09.878Z,1.43
2023-11-25T00:25:14.046Z,1.36
2023-11-25T00:26:16.912Z,1.35
2023-11-25T00:27:20.207Z,1.31
2023-11-25T00:28:22.975Z,1.32
2023-11-25T00:29:26.063Z,1.37
2023-11-25T00:30:30.671Z,1.39
2023-11-25T00:31:34.571Z,1.40
2023-11-25T00:32:41.376Z,1.39
2023-11-25T00:33:44.376Z,1.37
2023-11-25T00:34:47.737Z,1.32
2023-11-25T00:35:51.845Z,1.32
2023-11-25T00:36:54.709Z,1.33
2023-11-25T00:37:58.083Z,1.33
2023-11-25T00:39:01.149Z,1.35
2023-11-25T00:40:25.366Z,1.30
2023-11-25T00:41:28.524Z,1.30
2023-11-25T00:42:31.282Z,1.34
2023-11-25T00:43:34.443Z,1.35
2023-11-25T00:44:39.345Z,1.30
2023-11-25T00:45:43.761Z,1.34
2023-11-25T00:46:46.696Z,1.34
2023-11-25T00:47:49.544Z,1.34
2023-11-25T00:48:53.689Z,1.34
2023-11-25T00:49:57.003Z,1.35
2023-11-25T00:50:59.988Z,1.35
2023-11-25T00:52:03.182Z,1.39
2023-11-25T00:53:06.205Z,1.39
2023-11-25T00:54:10.126Z,1.35
2023-11-25T00:55:13.139Z,1.40
2023-11-25T00:56:17.201Z,1.45
2023-11-25T00:57:20.213Z,1.40
2023-11-25T00:58:22.978Z,1.36
2023-11-25T00:59:26.002Z,1.41
2023-11-25T01:00:32.117Z,1.41
2023-11-25T01:01:36.702Z,1.45
2023-11-25T01:02:40.067Z,1.46
2023-11-25T01:03:43.299Z,1.41
2023-11-25T01:04:46.332Z,1.39
2023-11-25T01:05:50.342Z,1.46
2023-11-25T01:06:53.516Z,1.48
2023-11-25T01:07:56.738Z,1.49
2023-11-25T01:08:59.732Z,1.52
2023-11-25T01:10:03.030Z,1.48
2023-11-25T01:11:06.711Z,1.45
2023-11-25T01:12:09.600Z,1.47
2023-11-25T01:13:12.409Z,1.47
2023-11-25T01:14:15.414Z,1.50
2023-11-25T01:15:18.262Z,1.46
2023-11-25T01:16:21.220Z,1.47
2023-11-25T01:17:25.824Z,1.47
2023-11-25T01:18:28.834Z,1.44
2023-11-25T01:19:31.584Z,1.42
2023-11-25T01:20:34.667Z,1.41
2023-11-25T01:21:37.838Z,1.37
2023-11-25T01:22:41.279Z,1.33
2023-11-25T01:23:44.128Z,1.34
2023-11-25T01:24:49.175Z,1.42
2023-11-25T01:25:52.630Z,1.42
2023-11-25T01:26:55.715Z,1.33
2023-11-25T01:27:59.643Z,1.32
2023-11-25T01:29:04.307Z,1.28
2023-11-25T01:30:08.134Z,1.25
2023-11-25T01:31:11.571Z,1.23
2023-11-25T01:32:14.911Z,1.22
2023-11-25T01:33:17.950Z,1.19
2023-11-25T01:34:21.593Z,1.16
2023-11-25T01:35:24.599Z,1.15
2023-11-25T01:36:30.296Z,1.14
2023-11-25T01:37:33.057Z,1.16
2023-11-25T01:38:36.307Z,1.10
2023-11-25T01:39:39.240Z,1.06
2023-11-25T01:40:43.144Z,1.06
2023-11-25T01:41:46.094Z,1.07
2023-11-25T01:42:48.807Z,1.08
2023-11-25T01:43:51.840Z,1.01
2023-11-25T01:44:54.606Z,0.98
2023-11-25T01:45:59.294Z,0.97
2023-11-25T01:47:02.682Z,1.03
2023-11-25T01:48:06.379Z,1.00
2023-11-25T01:49:13.980Z,0.94
2023-11-25T01:50:17.355Z,0.91
2023-11-25T01:51:20.329Z,0.93
2023-11-25T01:52:24.451Z,0.89
2023-11-25T01:53:29.776Z,0.89
2023-11-25T01:54:32.911Z,0.90
2023-11-25T01:55:36.105Z,0.83
2023-11-25T01:56:39.109Z,0.90
2023-11-25T01:57:42.814Z,0.86
2023-11-25T01:58:46.737Z,0.87
2023-11-25T01:59:50.021Z,0.95
2023-11-25T02:00:52.881Z,0.89
2023-11-25T02:01:56.893Z,0.90
2023-11-25T02:03:00.196Z,0.86
2023-11-25T02:04:03.204Z,0.81
2023-11-25T02:05:06.999Z,0.77
2023-11-25T02:06:09.993Z,0.75
2023-11-25T02:07:13.182Z,0.76
2023-11-25T02:08:16.094Z,0.73
2023-11-25T02:09:19.219Z,0.72
2023-11-25T02:10:22.279Z,0.68
2023-11-25T02:11:26.701Z,0.66
2023-11-25T02:12:29.696Z,0.64
2023-11-25T02:13:32.807Z,0.63
2023-11-25T02:14:35.842Z,0.62
2023-11-25T02:15:41.166Z,0.57
2023-11-25T02:16:43.930Z,0.54
2023-11-25T02:17:47.144Z,0.59
2023-11-25T02:18:50.163Z,0.55
2023-11-25T02:19:55.063Z,0.52
2023-11-25T02:20:58.071Z,0.49
2023-11-25T02:22:01.563Z,0.48
2023-11-25T02:23:06.160Z,0.45
2023-11-25T02:24:09.461Z,0.49
2023-11-25T02:25:13.063Z,0.52
2023-11-25T02:26:16.124Z,0.49
2023-11-25T02:27:18.893Z,0.44
2023-11-25T02:28:22.444Z,0.42
2023-11-25T02:29:25.622Z,0.39
2023-11-25T02:30:28.692Z,0.47
2023-11-25T02:31:31.455Z,0.43
2023-11-25T02:32:35.123Z,0.38
2023-11-25T02:33:38.225Z,0.37
2023-11-25T02:34:41.294Z,0.37
2023-11-25T02:35:45.279Z,0.43
2023-11-25T02:36:49.947Z,0.38
2023-11-25T02:37:53.018Z,0.39
2023-11-25T02:38:57.917Z,0.37
2023-11-25T02:40:02.304Z,0.38
2023-11-25T02:41:05.619Z,0.39
2023-11-25T02:42:08.513Z,0.37
2023-11-25T02:43:12.603Z,0.36
2023-11-25T02:44:17.376Z,0.31
2023-11-25T02:45:24.025Z,0.30
2023-11-25T02:46:27.360Z,0.27
2023-11-25T02:47:30.676Z,0.25
2023-11-25T02:48:33.742Z,0.26
2023-11-25T02:49:36.966Z,0.25
2023-11-25T02:50:39.786Z,0.24
2023-11-25T02:51:53.320Z,0.26
2023-11-25T02:52:56.389Z,0.24
2023-11-25T02:53:59.865Z,0.24
2023-11-25T02:55:02.866Z,0.26
2023-11-25T02:56:07.575Z,0.25
2023-11-25T02:57:10.382Z,0.22
2023-11-25T02:58:14.073Z,0.30
2023-11-25T02:59:20.157Z,0.30
2023-11-25T03:00:26.299Z,0.27
2023-11-25T03:01:31.614Z,0.27
2023-11-25T03:02:35.133Z,0.25
2023-11-25T03:03:43.327Z,0.20
2023-11-25T03:04:49.443Z,0.19
2023-11-25T03:05:54.792Z,0.23
2023-11-25T03:06:59.564Z,0.23
2023-11-25T03:08:02.592Z,0.30
2023-11-25T03:09:08.142Z,0.39
2023-11-25T03:10:11.514Z,0.47
2023-11-25T03:11:20.123Z,0.45
2023-11-25T03:12:23.966Z,0.42
2023-11-25T03:13:27.091Z,0.43
2023-11-25T03:14:30.176Z,0.42
2023-11-25T03:15:33.268Z,0.40
2023-11-25T03:16:37.383Z,0.45
2023-11-25T03:17:40.955Z,0.47
2023-11-25T03:18:44.245Z,0.48
2023-11-25T03:19:47.330Z,0.48
2023-11-25T03:20:50.180Z,0.47
2023-11-25T03:21:54.359Z,0.48
2023-11-25T03:22:57.256Z,0.51
2023-11-25T03:24:00.813Z,0.45
2023-11-25T03:25:06.262Z,0.51
2023-11-25T03:26:13.525Z,0.49
2023-11-25T03:27:16.966Z,0.50
2023-11-25T03:28:21.381Z,0.55
2023-11-25T03:29:24.066Z,0.51
2023-11-25T03:30:27.911Z,0.52
2023-11-25T03:31:30.941Z,0.47
2023-11-25T03:32:33.880Z,0.47
2023-11-25T03:33:36.771Z,0.51
2023-11-25T03:34:39.834Z,0.52
2023-11-25T03:35:43.094Z,0.51
2023-11-25T03:36:46.081Z,0.50
2023-11-25T03:37:49.343Z,0.44
2023-11-25T03:38:52.191Z,0.42
2023-11-25T03:39:55.332Z,0.43
2023-11-25T03:40:58.839Z,0.48
2023-11-25T03:42:03.045Z,0.48
2023-11-25T03:43:06.244Z,0.45
2023-11-25T03:44:09.186Z,0.50
2023-11-25T03:45:16.039Z,0.47
2023-11-25T03:46:19.264Z,0.56
2023-11-25T03:47:22.110Z,0.59
2023-11-25T03:48:25.165Z,0.52
2023-11-25T03:49:28.407Z,0.55
2023-11-25T03:50:31.130Z,0.55
2023-11-25T03:51:34.118Z,0.53
2023-11-25T03:52:37.360Z,0.48
2023-11-25T03:53:40.486Z,0.43
2023-11-25T03:54:44.466Z,0.44
2023-11-25T03:55:47.609Z,0.44
2023-11-25T03:56:50.864Z,0.42
2023-11-25T03:57:53.692Z,0.36
2023-11-25T03:58:56.543Z,0.36
2023-11-25T03:59:59.178Z,0.36
2023-11-25T04:01:02.738Z,0.33
2023-11-25T04:02:05.537Z,0.35
2023-11-25T04:03:08.621Z,0.33
2023-11-25T04:04:12.496Z,0.31
2023-11-25T04:05:20.480Z,0.30
2023-11-25T04:06:23.651Z,0.26
2023-11-25T04:07:26.838Z,0.23
2023-11-25T04:08:30.009Z,0.21
2023-11-25T04:09:33.377Z,0.22
2023-11-25T04:10:38.433Z,0.17
2023-11-25T04:11:44.557Z,0.20
2023-11-25T04:12:49.212Z,0.14
2023-11-25T04:13:52.645Z,0.14
2023-11-25T04:14:55.715Z,0.13
2023-11-25T04:16:01.392Z,0.08
2023-11-25T04:17:04.828Z,0.09
2023-11-25T04:18:07.732Z,0.07
2023-11-25T04:19:11.746Z,0.04
2023-11-25T04:20:15.393Z,0.05
2023-11-25T04:21:23.041Z,0.01
2023-11-25T04:22:26.124Z,-0.01
2023-11-25T04:23:31.770Z,-0.03
2023-11-25T04:24:35.834Z,-0.04
2023-11-25T04:25:39.241Z,-0.03
2023-11-25T04:26:42.379Z,-0.08
2023-11-25T04:27:50.588Z,-0.05
2023-11-25T04:28:54.185Z,0.02
2023-11-25T04:29:57.274Z,-0.02
2023-11-25T04:31:00.726Z,0.02
2023-11-25T04:32:04.024Z,0.02
2023-11-25T04:33:13.041Z,-0.01
2023-11-25T04:34:15.816Z,-0.04
2023-11-25T04:35:18.599Z,-0.07
2023-11-25T04:36:21.504Z,-0.05
2023-11-25T04:37:24.548Z,-0.06
2023-11-25T04:38:27.640Z,-0.09
2023-11-25T04:39:30.392Z,-0.09
2023-11-25T04:40:33.484Z,-0.05
2023-11-25T04:41:41.113Z,-0.05
2023-11-25T04:42:44.700Z,-0.08
2023-11-25T04:43:47.777Z,-0.05
2023-11-25T04:44:51.255Z,-0.06
2023-11-25T04:45:54.043Z,-0.13
2023-11-25T04:46:57.108Z,-0.10
2023-11-25T04:48:00.384Z,-0.09
2023-11-25T04:49:05.419Z,-0.11
2023-11-25T04:50:09.666Z,-0.07
2023-11-25T04:51:12.884Z,-0.06
2023-11-25T04:52:16.134Z,-0.07
2023-11-25T04:53:18.899Z,-0.05
2023-11-25T04:54:21.729Z,-0.10
2023-11-25T04:55:29.159Z,-0.15
2023-11-25T04:56:32.467Z,-0.16
2023-11-25T04:57:36.125Z,-0.16
2023-11-25T04:58:41.669Z,-0.12
2023-11-25T04:59:44.408Z,-0.12
2023-11-25T05:00:50.066Z,-0.09
2023-11-25T05:01:53.157Z,-0.12
2023-11-25T05:02:56.350Z,-0.16
2023-11-25T05:03:59.902Z,-0.17
2023-11-25T05:05:03.139Z,-0.18
2023-11-25T05:06:10.863Z,-0.14
2023-11-25T05:07:13.740Z,-0.18
2023-11-25T05:08:16.428Z,-0.18
2023-11-25T05:09:19.882Z,-0.17
2023-11-25T05:10:22.788Z,-0.14
2023-11-25T05:11:28.009Z,-0.11
2023-11-25T05:12:31.048Z,-0.06
2023-11-25T05:13:34.268Z,0.01
2023-11-25T05:14:37.349Z,-0.04
2023-11-25T05:15:40.714Z,-0.09
2023-11-25T05:16:43.613Z,-0.08
2023-11-25T05:17:46.653Z,-0.12
2023-11-25T05:18:49.662Z,-0.10
2023-11-25T05:19:52.734Z,-0.08
2023-11-25T05:20:55.684Z,0.00
2023-11-25T05:21:58.666Z,0.02
2023-11-25T05:23:02.292Z,-0.05
2023-11-25T05:24:06.554Z,-0.09
2023-11-25T05:25:12.329Z,-0.11
2023-11-25T05:26:15.586Z,-0.17
2023-11-25T05:27:18.650Z,-0.23
2023-11-25T05:28:23.580Z,-0.23
2023-11-25T05:29:26.695Z,-0.20
2023-11-25T05:30:29.751Z,-0.19
2023-11-25T05:31:34.904Z,-0.16
2023-11-25T05:32:38.104Z,-0.19
2023-11-25T05:33:41.284Z,-0.24
2023-11-25T05:34:44.280Z,-0.25
2023-11-25T05:35:47.429Z,-0.26
2023-11-25T05:36:50.522Z,-0.26
2023-11-25T05:37:54.497Z,-0.27
2023-11-25T05:38:57.957Z,-0.30
2023-11-25T05:40:00.963Z,-0.31
2023-11-25T05:41:04.530Z,-0.33
2023-11-25T05:42:08.401Z,-0.36
2023-11-25T05:43:11.557Z,-0.35
2023-11-25T05:44:14.581Z,-0.32
2023-11-25T05:45:19.747Z,-0.35
2023-11-25T05:46:24.774Z,-0.36
2023-11-25T05:47:29.879Z,-0.41
2023-11-25T05:48:33.625Z,-0.44
2023-11-25T05:49:36.607Z,-0.46
2023-11-25T05:50:40.358Z,-0.55
2023-11-25T05:51:43.743Z,-0.56
2023-11-25T05:52:47.291Z,-0.59
2023-11-25T05:53:50.381Z,-0.57
2023-11-25T05:54:53.685Z,-0.58
2023-11-25T05:55:57.314Z,-0.57
2023-11-25T05:57:00.062Z,-0.61
2023-11-25T05:58:02.713Z,-0.62
2023-11-25T05:59:05.553Z,-0.75
2023-11-25T06:00:13.499Z,-0.78
2023-11-25T06:01:16.390Z,-0.78
2023-11-25T06:02:19.463Z,-0.78
2023-11-25T06:03:24.654Z,-0.73
2023-11-25T06:04:27.999Z,-0.83
2023-11-25T06:05:31.246Z,-0.84
2023-11-25T06:06:34.076Z,-0.83
2023-11-25T06:07:37.097Z,-0.86
2023-11-25T06:08:40.091Z,-0.87
2023-11-25T06:09:43.178Z,-0.93
2023-11-25T06:10:48.455Z,-0.89
2023-11-25T06:11:52.612Z,-0.93
2023-11-25T06:12:55.394Z,-0.91
2023-11-25T06:13:58.262Z,-0.97
2023-11-25T06:15:01.817Z,-1.01
2023-11-25T06:16:05.183Z,-1.00
2023-11-25T06:17:08.888Z,-1.09
2023-11-25T06:18:14.966Z,-1.07
2023-11-25T06:19:19.384Z,-1.11
2023-11-25T06:20:26.386Z,-1.03
2023-11-25T06:21:29.218Z,-1.00
2023-11-25T06:22:32.318Z,-0.96
2023-11-25T06:23:35.244Z,-0.96
2023-11-25T06:24:38.274Z,-0.94
2023-11-25T06:25:44.162Z,-0.99
2023-11-25T06:26:49.352Z,-0.97
2023-11-25T06:27:52.374Z,-0.98
2023-11-25T06:28:56.700Z,-0.95
2023-11-25T06:29:59.896Z,-0.92
2023-11-25T06:31:05.566Z,-0.90
2023-11-25T06:32:08.498Z,-0.89
2023-11-25T06:33:11.575Z,-0.84
2023-11-25T06:34:14.771Z,-0.79
2023-11-25T06:35:18.200Z,-0.77
2023-11-25T06:36:21.189Z,-0.76
2023-11-25T06:37:25.187Z,-0.71
2023-11-25T06:38:28.238Z,-0.71
2023-11-25T06:39:33.294Z,-0.65
2023-11-25T06:40:36.637Z,-0.65
2023-11-25T06:41:44.507Z,-0.64
2023-11-25T06:42:47.509Z,-0.61
2023-11-25T06:43:51.180Z,-0.61
2023-11-25T06:44:54.211Z,-0.60
2023-11-25T06:45:57.092Z,-0.57
2023-11-25T06:47:00.072Z,-0.53
2023-11-25T06:48:04.102Z,-0.52
2023-11-25T06:49:08.435Z,-0.52
2023-11-25T06:50:13.009Z,-0.47
2023-11-25T06:51:16.194Z,-0.39
2023-11-25T06:52:19.057Z,-0.32
2023-11-25T06:53:22.109Z,-0.25
2023-11-25T06:54:25.359Z,-0.18
2023-11-25T06:55:29.292Z,-0.15
2023-11-25T06:56:34.548Z,-0.04
2023-11-25T06:57:37.490Z,-0.05
2023-11-25T06:58:41.426Z,-0.04
2023-11-25T06:59:47.003Z,-0.04
2023-11-25T07:00:50.605Z,-0.04
2023-11-25T07:01:56.113Z,-0.02
2023-11-25T07:02:58.907Z,-0.02
2023-11-25T07:04:08.862Z,0.05
2023-11-25T07:05:11.916Z,0.07
2023-11-25T07:06:18.135Z,0.08
2023-11-25T07:07:22.365Z,0.08
2023-11-25T07:08:25.718Z,0.12
2023-11-25T07:09:28.420Z,0.16
2023-11-25T07:10:36.187Z,0.18
2023-11-25T07:11:39.587Z,0.20
2023-11-25T07:12:43.171Z,0.32
2023-11-25T07:13:46.104Z,0.34
2023-11-25T07:14:49.261Z,0.40
2023-11-25T07:15:52.063Z,0.37
2023-11-25T07:16:55.255Z,0.39
2023-11-25T07:17:59.465Z,0.39
2023-11-25T07:19:02.552Z,0.43
2023-11-25T07:20:07.417Z,0.53
2023-11-25T07:21:15.597Z,0.55
2023-11-25T07:22:18.468Z,0.55
2023-11-25T07:23:21.592Z,0.65
2023-11-25T07:24:28.704Z,0.74
2023-11-25T07:25:33.877Z,0.77
2023-11-25T07:26:42.742Z,0.83
2023-11-25T07:27:46.766Z,0.82
2023-11-25T07:28:49.790Z,0.89
2023-11-25T07:29:52.800Z,0.96
2023-11-25T07:30:56.054Z,0.98
2023-11-25T07:32:01.661Z,1.04
2023-11-25T07:33:05.393Z,1.10
2023-11-25T07:34:09.664Z,1.24
2023-11-25T07:35:13.159Z,1.29
2023-11-25T07:36:17.193Z,1.36
2023-11-25T07:37:20.406Z,1.45
2023-11-25T07:38:23.233Z,1.53
2023-11-25T07:39:30.871Z,1.64
2023-11-25T07:40:35.669Z,1.76
2023-11-25T07:41:38.464Z,1.83
2023-11-25T07:42:47.368Z,1.96
2023-11-25T07:43:52.616Z,2.03
2023-11-25T07:44:55.421Z,2.20
2023-11-25T07:45:58.598Z,2.32
2023-11-25T07:47:03.312Z,2.42
2023-11-25T07:48:06.220Z,2.54
2023-11-25T07:49:08.978Z,2.64
2023-11-25T07:50:12.377Z,2.74
2023-11-25T07:51:14.993Z,2.83
2023-11-25T07:52:18.093Z,2.99
2023-11-25T07:53:24.523Z,3.06
2023-11-25T07:54:27.612Z,3.14
2023-11-25T07:55:30.655Z,3.29
2023-11-25T07:56:33.789Z,3.36
2023-11-25T07:57:36.629Z,3.46
2023-11-25T07:58:40.218Z,3.53
2023-11-25T07:59:43.599Z,3.63
2023-11-25T08:00:46.230Z,3.70
2023-11-25T08:01:49.009Z,3.91
2023-11-25T08:02:57.166Z,4.08
2023-11-25T08:04:01.478Z,4.28
2023-11-25T08:05:04.903Z,4.50
2023-11-25T08:06:07.831Z,4.50
2023-11-25T08:07:10.837Z,4.55
2023-11-25T08:08:13.730Z,4.63
2023-11-25T08:09:16.707Z,4.77
2023-11-25T08:10:21.583Z,4.94
2023-11-25T08:11:25.097Z,5.10
2023-11-25T08:12:28.248Z,5.26
2023-11-25T08:13:31.865Z,5.30
2023-11-25T08:14:34.957Z,5.37
2023-11-25T08:15:37.917Z,5.53
2023-11-25T08:16:41.153Z,5.72
2023-11-25T08:17:44.854Z,5.82
2023-11-25T08:18:48.216Z,5.88
2023-11-25T08:19:51.335Z,5.99
2023-11-25T08:20:54.377Z,6.04
2023-11-25T08:21:57.554Z,6.18
2023-11-25T08:23:01.275Z,6.30
2023-11-25T08:24:04.656Z,6.52
2023-11-25T08:25:11.533Z,6.65
2023-11-25T08:26:23.918Z,6.56
2023-11-25T08:27:26.854Z,6.48
2023-11-25T08:28:29.833Z,6.68
2023-11-25T08:29:32.603Z,7.02
2023-11-25T08:30:37.760Z,7.04
2023-11-25T08:31:41.123Z,7.00
2023-11-25T08:32:44.959Z,6.90
2023-11-25T08:33:48.290Z,7.11
2023-11-25T08:34:51.805Z,6.87
2023-11-25T08:35:54.926Z,7.05
2023-11-25T08:36:57.705Z,7.04
2023-11-25T08:38:00.498Z,6.88
2023-11-25T08:39:03.329Z,6.71
2023-11-25T08:40:08.902Z,6.54
2023-11-25T08:41:12.261Z,6.44
2023-11-25T08:42:15.904Z,6.34
2023-11-25T08:43:19.018Z,6.17
2023-11-25T08:44:21.855Z,6.08
2023-11-25T08:45:25.663Z,5.94
2023-11-25T08:46:28.631Z,5.79
2023-11-25T08:47:33.597Z,5.53
2023-11-25T08:48:36.585Z,5.40
2023-11-25T08:49:39.523Z,5.35
2023-11-25T08:50:42.424Z,5.21
2023-11-25T08:51:48.941Z,5.07
2023-11-25T08:52:52.291Z,5.25
2023-11-25T08:53:55.446Z,5.51
2023-11-25T08:54:58.554Z,5.58
2023-11-25T08:56:03.928Z,5.77
2023-11-25T08:57:10.333Z,6.37
2023-11-25T08:58:14.090Z,7.11
2023-11-25T08:59:22.077Z,7.80
2023-11-25T09:00:25.516Z,8.21
2023-11-25T09:01:33.409Z,8.52
2023-11-25T09:02:36.972Z,8.87
2023-11-25T09:03:40.896Z,9.14
2023-11-25T09:04:44.290Z,9.76
2023-11-25T09:05:48.311Z,9.92
2023-11-25T09:06:51.674Z,10.15
2023-11-25T09:07:57.246Z,10.52
2023-11-25T09:09:00.495Z,10.03
2023-11-25T09:10:06.842Z,10.42
2023-11-25T09:11:10.313Z,10.40
2023-11-25T09:12:16.037Z,9.65
2023-11-25T09:13:19.231Z,9.26
2023-11-25T09:14:22.351Z,8.42
2023-11-25T09:15:25.176Z,7.89
2023-11-25T09:16:29.451Z,7.04
2023-11-25T09:17:34.108Z,6.81
2023-11-25T09:18:38.397Z,6.87
2023-11-25T09:19:41.521Z,7.59
2023-11-25T09:20:44.298Z,7.37
2023-11-25T09:21:47.104Z,7.46
2023-11-25T09:22:50.951Z,7.33
2023-11-25T09:23:56.548Z,7.06
2023-11-25T09:24:59.737Z,7.17
2023-11-25T09:26:03.822Z,7.01
2023-11-25T09:27:06.983Z,6.95
2023-11-25T09:28:14.334Z,6.90
2023-11-25T09:29:17.392Z,6.73
2023-11-25T09:30:20.285Z,6.80
2023-11-25T09:31:24.176Z,6.81
2023-11-25T09:32:29.099Z,6.62
2023-11-25T09:33:32.682Z,6.28
2023-11-25T09:34:35.799Z,6.10
2023-11-25T09:35:38.882Z,5.95
2023-11-25T09:36:41.924Z,6.47
2023-11-25T09:37:46.515Z,6.47
2023-11-25T09:38:49.686Z,6.41
2023-11-25T09:39:52.719Z,6.01
2023-11-25T09:40:55.983Z,5.82
2023-11-25T09:42:00.279Z,5.34
2023-11-25T09:43:03.620Z,5.15
2023-11-25T09:44:09.650Z,4.98
2023-11-25T09:45:14.009Z,4.97
2023-11-25T09:46:17.915Z,4.89
2023-11-25T09:47:20.732Z,4.73
2023-11-25T09:48:24.428Z,4.62
2023-11-25T09:49:27.515Z,4.56
2023-11-25T09:50:30.865Z,4.52
2023-11-25T09:51:37.773Z,4.46
2023-11-25T09:52:52.371Z,4.43
2023-11-25T09:53:58.687Z,4.37
2023-11-25T09:55:02.766Z,4.29
2023-11-25T09:56:07.460Z,4.27
2023-11-25T09:57:11.413Z,4.29
2023-11-25T09:58:19.285Z,4.40
2023-11-25T09:59:23.848Z,4.37
2023-11-25T10:00:28.375Z,4.42
2023-11-25T10:01:32.217Z,4.46
2023-11-25T10:02:37.274Z,4.64
2023-11-25T10:03:45.276Z,4.77
2023-11-25T10:04:49.249Z,4.77
2023-11-25T10:05:52.293Z,4.67
2023-11-25T10:06:55.659Z,4.57
2023-11-25T10:07:58.432Z,4.47
2023-11-25T10:09:03.054Z,4.43
2023-11-25T10:10:06.735Z,4.30
2023-11-25T10:11:10.177Z,4.13
2023-11-25T10:12:13.226Z,4.03
2023-11-25T10:13:16.562Z,4.04
2023-11-25T10:14:19.250Z,4.03
2023-11-25T10:15:25.615Z,3.89
2023-11-25T10:16:32.033Z,3.76
2023-11-25T10:17:35.074Z,3.73
2023-11-25T10:18:39.140Z,3.62
2023-11-25T10:19:42.156Z,3.56
2023-11-25T10:20:48.669Z,3.59
2023-11-25T10:21:53.179Z,3.56
2023-11-25T10:22:59.503Z,3.47
2023-11-25T10:24:09.805Z,3.46
2023-11-25T10:25:12.919Z,3.38
2023-11-25T10:26:19.496Z,3.32
2023-11-25T10:27:23.345Z,3.29
2023-11-25T10:28:27.717Z,3.33
2023-11-25T10:29:33.396Z,3.33
2023-11-25T10:30:36.343Z,3.33
2023-11-25T10:31:43.240Z,3.26
2023-11-25T10:32:46.371Z,3.26
2023-11-25T10:33:49.338Z,3.29
2023-11-25T10:34:57.142Z,3.22
2023-11-25T10:36:00.661Z,3.30
2023-11-25T10:37:06.122Z,3.31
2023-11-25T10:38:08.949Z,3.28
2023-11-25T10:39:12.566Z,3.38
2023-11-25T10:40:18.442Z,3.50
2023-11-25T10:41:21.944Z,3.54
2023-11-25T10:42:24.798Z,3.57
2023-11-25T10:43:29.015Z,3.70
2023-11-25T10:44:32.182Z,3.67
2023-11-25T10:45:35.622Z,3.72
2023-11-25T10:46:42.368Z,3.76
2023-11-25T10:47:45.722Z,3.68
2023-11-25T10:48:50.642Z,3.60
2023-11-25T10:49:54.451Z,3.46
2023-11-25T10:50:59.354Z,3.48
2023-11-25T10:52:07.445Z,3.47
2023-11-25T10:53:17.365Z,3.41
2023-11-25T10:54:35.135Z,3.31
2023-11-25T10:55:38.886Z,3.23
2023-11-25T10:56:42.216Z,3.14
2023-11-25T10:57:47.142Z,3.05
2023-11-25T10:58:53.096Z,3.10
2023-11-25T11:00:00.374Z,3.18
2023-11-25T11:01:03.981Z,3.13
2023-11-25T11:02:19.739Z,3.12
2023-11-25T11:03:39.002Z,3.31
2023-11-25T11:04:55.482Z,3.63
2023-11-25T11:06:02.961Z,3.73
2023-11-25T11:07:08.913Z,4.08
2023-11-25T11:08:30.765Z,4.24
2023-11-25T11:09:36.835Z,4.28
2023-11-25T11:10:49.463Z,4.36
2023-11-25T11:11:57.803Z,4.51
2023-11-25T11:13:05.379Z,4.52
2023-11-25T11:14:15.641Z,4.65
2023-11-25T11:15:21.916Z,5.14
2023-11-25T11:16:36.536Z,5.46
2023-11-25T11:18:20.540Z,5.67
2023-11-25T11:19:35.695Z,6.39
2023-11-25T11:20:47.823Z,7.02
2023-11-25T11:21:53.539Z,7.56
2023-11-25T11:22:58.729Z,8.04
2023-11-25T11:24:02.941Z,8.36
2023-11-25T11:25:24.417Z,8.16
2023-11-25T11:26:47.523Z,8.93
2023-11-25T11:28:12.062Z,9.78
2023-11-25T11:29:37.921Z,10.08
2023-11-25T11:30:59.617Z,10.09
2023-11-25T11:32:08.803Z,10.47
2023-11-25T11:33:15.929Z,10.79
2023-11-25T11:34:19.029Z,10.37
2023-11-25T11:35:22.361Z,10.78
2023-11-25T11:36:32.476Z,10.22
2023-11-25T11:37:39.699Z,10.47
2023-11-25T11:38:45.202Z,10.50
2023-11-25T11:39:52.123Z,9.92
2023-11-25T11:40:59.243Z,9.21
2023-11-25T11:42:27.968Z,8.83
2023-11-25T11:43:31.093Z,8.88
2023-11-25T11:44:36.212Z,9.27
2023-11-25T11:45:38.955Z,9.25
2023-11-25T11:46:43.983Z,9.33
2023-11-25T11:47:48.977Z,8.77
2023-11-25T11:48:52.824Z,8.02
2023-11-25T11:49:57.172Z,7.57
2023-11-25T11:51:00.235Z,7.79
2023-11-25T11:52:03.988Z,7.96
2023-11-25T11:53:14.376Z,8.50
2023-11-25T11:54:24.858Z,9.15
2023-11-25T11:55:54.221Z,9.50
2023-11-25T11:57:05.078Z,10.03
2023-11-25T11:58:11.753Z,10.08
2023-11-25T11:59:14.750Z,10.79
2023-11-25T12:00:17.964Z,10.57
2023-11-25T12:01:20.921Z,11.24
2023-11-25T12:02:23.957Z,11.56
2023-11-25T12:03:28.422Z,11.64
2023-11-25T12:04:31.363Z,12.04
2023-11-25T12:05:34.763Z,11.66
2023-11-25T12:06:39.196Z,11.26
2023-11-25T12:07:42.190Z,10.21
2023-11-25T12:08:45.193Z,9.49
2023-11-25T12:09:48.869Z,9.60
2023-11-25T12:10:53.354Z,9.92
2023-11-25T12:12:01.530Z,10.38
2023-11-25T12:13:05.916Z,10.92
2023-11-25T12:14:08.931Z,11.41
2023-11-25T12:15:11.845Z,10.87
2023-11-25T12:16:14.546Z,11.03
2023-11-25T12:17:18.351Z,10.70
2023-11-25T12:18:22.138Z,10.69
2023-11-25T12:19:26.123Z,10.56
2023-11-25T12:20:29.732Z,10.52
2023-11-25T12:21:33.489Z,10.93
2023-11-25T12:22:36.645Z,11.01
2023-11-25T12:23:49.205Z,10.82
2023-11-25T12:24:54.359Z,11.41
2023-11-25T12:26:00.346Z,11.72
2023-11-25T12:27:06.761Z,11.55
2023-11-25T12:28:11.190Z,11.50
2023-11-25T12:29:15.164Z,11.87
2023-11-25T12:30:18.267Z,12.09
2023-11-25T12:31:21.370Z,12.26
2023-11-25T12:32:25.357Z,12.80
2023-11-25T12:33:28.480Z,13.13
2023-11-25T12:34:31.479Z,12.98
2023-11-25T12:35:40.007Z,12.68
2023-11-25T12:36:43.262Z,12.22
2023-11-25T12:37:52.911Z,11.80
2023-11-25T12:39:02.286Z,12.46
2023-11-25T12:40:25.720Z,12.39
2023-11-25T12:41:28.411Z,12.47
2023-11-25T12:42:31.374Z,11.93
2023-11-25T12:43:37.562Z,12.11
2023-11-25T12:44:55.237Z,12.04
2023-11-25T12:45:58.101Z,12.12
2023-11-25T12:47:03.278Z,11.39
2023-11-25T12:48:10.175Z,10.28
2023-11-25T12:49:22.818Z,10.24
2023-11-25T12:50:26.798Z,10.78
2023-11-25T12:51:44.981Z,11.33
2023-11-25T12:52:53.894Z,11.74
2023-11-25T12:53:57.274Z,11.17
2023-11-25T12:55:00.540Z,11.29
2023-11-25T12:56:04.600Z,10.80
2023-11-25T12:57:08.321Z,10.56
2023-11-25T12:58:13.540Z,10.40
2023-11-25T12:59:23.979Z,10.66
2023-11-25T13:00:27.597Z,10.96
2023-11-25T13:01:30.916Z,10.84
2023-11-25T13:02:35.198Z,10.98
2023-11-25T13:03:38.584Z,10.36
2023-11-25T13:04:49.629Z,10.01
2023-11-25T13:06:11.419Z,9.84
2023-11-25T13:07:31.633Z,9.39
2023-11-25T13:08:38.468Z,9.29
2023-11-25T13:09:42.056Z,9.46
2023-11-25T13:10:45.019Z,9.54
2023-11-25T13:11:49.074Z,9.87
2023-11-25T13:12:51.696Z,9.63
2023-11-25T13:13:54.424Z,10.33
2023-11-25T13:14:58.439Z,10.03
2023-11-25T13:16:02.655Z,10.10
2023-11-25T13:17:07.522Z,9.99
2023-11-25T13:18:10.412Z,10.66
2023-11-25T13:19:13.900Z,10.47
2023-11-25T13:20:56.198Z,10.75
2023-11-25T13:21:58.923Z,10.63
2023-11-25T13:23:01.998Z,10.35
2023-11-25T13:24:05.648Z,10.45
2023-11-25T13:25:09.201Z,10.78
2023-11-25T13:26:11.915Z,10.66
2023-11-25T13:27:14.626Z,9.94
2023-11-25T13:28:17.313Z,9.88
2023-11-25T13:29:20.557Z,9.69
2023-11-25T13:30:23.235Z,9.56
2023-11-25T13:31:26.089Z,10.05
2023-11-25T13:32:29.074Z,10.00
2023-11-25T13:33:32.035Z,9.85
2023-11-25T13:34:35.036Z,9.17
2023-11-25T13:35:39.184Z,9.24
2023-11-25T13:36:43.205Z,9.50
2023-11-25T13:37:45.977Z,8.63
2023-11-25T13:38:49.197Z,8.76
2023-11-25T13:39:52.600Z,8.04
2023-11-25T13:40:55.812Z,7.37
2023-11-25T13:41:58.779Z,6.92
2023-11-25T13:43:15.645Z,6.08
2023-11-25T13:44:18.573Z,5.64
2023-11-25T13:45:21.616Z,5.21
2023-11-25T13:46:24.932Z,4.91
2023-11-25T13:47:28.439Z,4.60
2023-11-25T13:48:32.494Z,4.52
2023-11-25T13:49:36.124Z,4.27
2023-11-25T13:50:40.164Z,3.94
2023-11-25T13:51:43.122Z,3.80
2023-11-25T13:52:47.034Z,3.56
2023-11-25T13:53:50.037Z,3.47
2023-11-25T13:54:54.636Z,3.23
2023-11-25T13:55:57.530Z,3.22
2023-11-25T13:57:00.420Z,3.17
2023-11-25T13:58:05.359Z,3.17
2023-11-25T13:59:08.521Z,3.10
2023-11-25T14:00:12.185Z,3.08
2023-11-25T14:01:15.391Z,2.88
2023-11-25T14:02:18.835Z,2.93
2023-11-25T14:03:21.570Z,2.91
2023-11-25T14:04:25.465Z,2.91
2023-11-25T14:05:28.117Z,2.84
2023-11-25T14:06:31.549Z,2.82
2023-11-25T14:07:35.015Z,2.82
2023-11-25T14:08:38.561Z,2.78
2023-11-25T14:09:44.100Z,2.78
2023-11-25T14:10:46.855Z,2.85
2023-11-25T14:11:49.616Z,2.90